Terminal Aerodrome Forecast
Issued by NWS Wilmington, OH

Home | Current Version | Previous Version | Text Only | Print | Product List | Glossary On
Versions: 1 2 3 4 5 6 7 8 9 10 11 12 13 14 15 16
000
FTUS41 KILN 251126
TAFILN
TAF
KILN 251126Z 2512/2612 18005KT P6SM VCSH SCT005 OVC015
      TEMPO 2512/2515 4SM -SHRA BR OVC005
     FM251500 20007KT P6SM VCSH OVC011
     FM251800 28013KT P6SM VCSH OVC020
     FM260000 29009KT P6SM OVC015
     FM261000 28010KT P6SM SCT015=

USA.gov is the U.S. government's official web portal to all federal, state and local government web resources and services.